createdAt,value
2023-01-23T00:00:08.503Z,0
2023-01-23T00:03:07.854Z,0
2023-01-23T00:06:07.851Z,0
2023-01-23T00:09:07.863Z,0
2023-01-23T00:12:07.898Z,0
2023-01-23T00:15:10.336Z,0
2023-01-23T00:18:07.884Z,0
2023-01-23T00:21:07.890Z,0
2023-01-23T00:24:07.817Z,0
2023-01-23T00:27:07.888Z,0
2023-01-23T00:30:07.875Z,0
2023-01-23T00:33:07.957Z,0
2023-01-23T00:36:07.749Z,0
2023-01-23T00:39:07.915Z,0
2023-01-23T00:42:07.958Z,0
2023-01-23T00:45:07.844Z,0
2023-01-23T00:48:07.811Z,0
2023-01-23T00:51:08.079Z,0
2023-01-23T00:54:07.904Z,0
2023-01-23T00:57:07.839Z,0
2023-01-23T01:00:07.899Z,0
2023-01-23T01:03:08.216Z,0
2023-01-23T01:06:07.838Z,0
2023-01-23T01:09:07.864Z,0
2023-01-23T01:12:07.919Z,0
2023-01-23T01:15:07.835Z,0
2023-01-23T01:18:07.872Z,0
2023-01-23T01:21:07.910Z,0
2023-01-23T01:24:07.885Z,0
2023-01-23T01:27:07.859Z,0
2023-01-23T01:30:07.908Z,0
2023-01-23T01:33:07.901Z,0
2023-01-23T01:36:07.866Z,0
2023-01-23T01:39:07.903Z,0
2023-01-23T01:42:07.814Z,0
2023-01-23T01:45:07.908Z,0
2023-01-23T01:48:07.938Z,0
2023-01-23T01:51:08.093Z,0
2023-01-23T01:54:07.795Z,0
2023-01-23T01:57:07.919Z,0
2023-01-23T02:00:07.985Z,0
2023-01-23T02:03:07.894Z,0
2023-01-23T02:06:07.847Z,0
2023-01-23T02:09:07.858Z,0
2023-01-23T02:12:07.817Z,0
2023-01-23T02:15:07.945Z,0
2023-01-23T02:18:07.830Z,0
2023-01-23T02:21:07.891Z,0
2023-01-23T02:24:07.919Z,0
2023-01-23T02:27:08.442Z,0
2023-01-23T02:30:07.816Z,0
2023-01-23T02:33:07.801Z,0
2023-01-23T02:36:07.924Z,0
2023-01-23T02:39:07.935Z,0
2023-01-23T02:42:07.874Z,0
2023-01-23T02:45:07.853Z,0
2023-01-23T02:48:07.891Z,0
2023-01-23T02:51:08.140Z,0
2023-01-23T02:54:07.890Z,0
2023-01-23T02:57:07.781Z,0
2023-01-23T03:00:07.872Z,0
2023-01-23T03:03:07.847Z,0
2023-01-23T03:06:07.949Z,0
2023-01-23T03:09:07.910Z,0
2023-01-23T03:12:07.952Z,0
2023-01-23T03:15:07.882Z,0
2023-01-23T03:18:08.073Z,0
2023-01-23T03:21:07.866Z,0
2023-01-23T03:24:07.858Z,0
2023-01-23T03:27:07.927Z,0
2023-01-23T03:30:07.883Z,0
2023-01-23T03:33:07.830Z,0
2023-01-23T03:36:07.924Z,0
2023-01-23T03:39:07.951Z,0
2023-01-23T03:42:07.886Z,0
2023-01-23T03:45:07.920Z,0
2023-01-23T03:48:07.850Z,0
2023-01-23T03:51:08.185Z,0
2023-01-23T03:54:07.830Z,0
2023-01-23T03:57:07.891Z,0
2023-01-23T04:00:07.965Z,0
2023-01-23T04:03:08.303Z,0
2023-01-23T04:06:07.860Z,0
2023-01-23T04:09:07.910Z,0
2023-01-23T04:12:07.819Z,0
2023-01-23T04:15:07.894Z,0
2023-01-23T04:18:07.839Z,0
2023-01-23T04:21:07.933Z,0
2023-01-23T04:24:07.852Z,0
2023-01-23T04:27:07.791Z,0
2023-01-23T04:30:07.873Z,0
2023-01-23T04:33:07.876Z,0
2023-01-23T04:36:07.870Z,0
2023-01-23T04:39:07.867Z,0
2023-01-23T04:42:07.838Z,0
2023-01-23T04:45:07.918Z,0
2023-01-23T04:48:07.991Z,0
2023-01-23T04:51:08.180Z,0
2023-01-23T04:54:07.865Z,0
2023-01-23T04:57:07.785Z,0
2023-01-23T05:00:07.997Z,0
2023-01-23T05:03:07.877Z,0
2023-01-23T05:06:08.063Z,0
2023-01-23T05:09:07.852Z,0
2023-01-23T05:12:07.863Z,0
2023-01-23T05:15:07.871Z,0
2023-01-23T05:18:07.796Z,0
2023-01-23T05:21:07.975Z,0
2023-01-23T05:24:07.879Z,0
2023-01-23T05:27:07.842Z,0
2023-01-23T05:30:07.920Z,0
2023-01-23T05:33:07.807Z,0
2023-01-23T05:36:07.900Z,0
2023-01-23T05:39:07.933Z,0
2023-01-23T05:42:07.887Z,0
2023-01-23T05:45:07.866Z,0
2023-01-23T05:48:07.802Z,0
2023-01-23T05:51:08.042Z,0
2023-01-23T05:54:08.016Z,0
2023-01-23T05:57:07.829Z,0
2023-01-23T06:00:07.921Z,0
2023-01-23T06:03:07.911Z,0
2023-01-23T06:06:07.926Z,0
2023-01-23T06:09:07.872Z,0
2023-01-23T06:12:07.776Z,0
2023-01-23T06:15:07.894Z,0
2023-01-23T06:18:08.244Z,0
2023-01-23T06:21:07.975Z,0
2023-01-23T06:24:07.801Z,0
2023-01-23T06:27:07.931Z,0
2023-01-23T06:30:07.904Z,0
2023-01-23T06:33:07.896Z,0
2023-01-23T06:36:07.983Z,0
2023-01-23T06:39:07.842Z,0
2023-01-23T06:42:07.925Z,3
2023-01-23T06:45:07.900Z,3
2023-01-23T06:48:07.812Z,7
2023-01-23T06:51:08.321Z,10
2023-01-23T06:54:07.959Z,13
2023-01-23T06:57:07.885Z,20
2023-01-23T07:00:08.118Z,27
2023-01-23T07:03:08.103Z,40
2023-01-23T07:06:07.808Z,53
2023-01-23T07:09:07.810Z,73
2023-01-23T07:12:07.854Z,90
2023-01-23T07:15:07.877Z,120
2023-01-23T07:18:07.950Z,157
2023-01-23T07:21:07.975Z,187
2023-01-23T07:24:07.864Z,203
2023-01-23T07:27:07.952Z,233
2023-01-23T07:30:08.044Z,280
2023-01-23T07:33:07.908Z,330
2023-01-23T07:36:08.009Z,383
2023-01-23T07:39:07.972Z,470
2023-01-23T07:42:07.967Z,533
2023-01-23T07:45:07.974Z,560
2023-01-23T07:48:07.926Z,610
2023-01-23T07:51:08.329Z,750
2023-01-23T07:54:07.814Z,693
2023-01-23T07:57:07.928Z,743
2023-01-23T08:00:08.001Z,923
2023-01-23T08:03:07.996Z,1017
2023-01-23T08:06:07.983Z,973
2023-01-23T08:09:07.957Z,1060
2023-01-23T08:12:07.879Z,1113
2023-01-23T08:15:07.893Z,1157
2023-01-23T08:18:08.075Z,1363
2023-01-23T08:21:07.890Z,1237
2023-01-23T08:24:07.850Z,1440
2023-01-23T08:27:07.908Z,1617
2023-01-23T08:30:08.112Z,1690
2023-01-23T08:33:07.904Z,1780
2023-01-23T08:36:09.508Z,1893
2023-01-23T08:39:07.948Z,1810
2023-01-23T08:42:07.998Z,2137
2023-01-23T08:45:07.911Z,2183
2023-01-23T08:48:07.980Z,2423
2023-01-23T08:51:08.244Z,2437
2023-01-23T08:54:08.023Z,2350
2023-01-23T08:57:08.004Z,2280
2023-01-23T09:00:07.934Z,2433
2023-01-23T09:03:09.881Z,2453
2023-01-23T09:06:08.000Z,2517
2023-01-23T09:09:07.869Z,2570
2023-01-23T09:12:08.043Z,2533
2023-01-23T09:15:07.902Z,2523
2023-01-23T09:18:07.906Z,2523
2023-01-23T09:21:10.873Z,2743
2023-01-23T09:24:07.980Z,2790
2023-01-23T09:27:09.590Z,2987
2023-01-23T09:30:08.940Z,3093
2023-01-23T09:33:08.519Z,3343
2023-01-23T09:36:08.308Z,3340
2023-01-23T09:39:08.355Z,3590
2023-01-23T09:42:10.522Z,3420
2023-01-23T09:45:08.334Z,3337
2023-01-23T09:48:08.980Z,3230
2023-01-23T09:54:07.826Z,3123
2023-01-23T09:57:07.846Z,3160
2023-01-23T10:00:08.036Z,3160
2023-01-23T10:03:07.849Z,2980
2023-01-23T10:06:07.867Z,2837
2023-01-23T10:09:07.798Z,3033
2023-01-23T10:12:07.772Z,3500
2023-01-23T10:15:07.769Z,3737
2023-01-23T10:18:07.784Z,3190
2023-01-23T10:21:07.970Z,3287
2023-01-23T10:24:07.792Z,4027
2023-01-23T10:27:07.820Z,4033
2023-01-23T10:30:07.796Z,4177
2023-01-23T10:33:07.851Z,4290
2023-01-23T10:36:08.215Z,4027
2023-01-23T10:39:07.961Z,4297
2023-01-23T10:42:10.103Z,3947
2023-01-23T10:45:07.767Z,3397
2023-01-23T10:48:18.643Z,3227
2023-01-23T10:51:08.168Z,3047
2023-01-23T10:54:31.601Z,3207
2023-01-23T10:57:08.060Z,3050
2023-01-23T11:00:07.931Z,2670
2023-01-23T11:03:08.254Z,2740
2023-01-23T11:06:07.896Z,2720
2023-01-23T11:09:07.932Z,3123
2023-01-23T11:12:07.810Z,3247
2023-01-23T11:15:07.769Z,3387
2023-01-23T11:18:08.011Z,3413
2023-01-23T11:21:07.794Z,3017
2023-01-23T11:24:10.692Z,3190
2023-01-23T11:27:07.758Z,3627
2023-01-23T11:30:08.112Z,4080
2023-01-23T11:33:07.838Z,3683
2023-01-23T11:36:07.868Z,4860
2023-01-23T11:39:07.968Z,4903
2023-01-23T11:42:08.017Z,4407
2023-01-23T11:45:07.834Z,4787
2023-01-23T11:48:07.855Z,3963
2023-01-23T11:51:08.087Z,4117
2023-01-23T11:54:08.136Z,4213
2023-01-23T11:57:07.907Z,4240
2023-01-23T12:00:07.871Z,4443
2023-01-23T12:03:08.232Z,3813
2023-01-23T12:09:07.844Z,3637
2023-01-23T12:12:07.859Z,3940
2023-01-23T12:15:07.878Z,3980
2023-01-23T12:21:07.844Z,4127
2023-01-23T12:24:07.893Z,4037
2023-01-23T12:27:07.916Z,4077
2023-01-23T12:30:07.945Z,4593
2023-01-23T12:33:07.880Z,5393
2023-01-23T12:36:07.811Z,4480
2023-01-23T12:39:07.848Z,3950
2023-01-23T12:42:07.797Z,3770
2023-01-23T12:45:07.796Z,4073
2023-01-23T12:48:08.657Z,4217
2023-01-23T12:51:08.716Z,4027
2023-01-23T12:54:07.781Z,4607
2023-01-23T12:57:07.858Z,4553
2023-01-23T13:00:07.976Z,4547
2023-01-23T13:03:07.855Z,4560
2023-01-23T13:06:07.856Z,4770
2023-01-23T13:09:25.309Z,4887
2023-01-23T13:12:07.816Z,5447
2023-01-23T13:15:40.208Z,5860
2023-01-23T13:18:08.047Z,5837
2023-01-23T13:21:07.842Z,6360
2023-01-23T13:24:07.812Z,4993
2023-01-23T13:27:09.074Z,4020
2023-01-23T13:30:07.955Z,3310
2023-01-23T13:33:08.031Z,3050
2023-01-23T13:36:07.904Z,3113
2023-01-23T13:39:07.837Z,2903
2023-01-23T13:42:07.996Z,2767
2023-01-23T13:45:07.834Z,2527
2023-01-23T14:21:07.852Z,1550
2023-01-23T14:24:07.902Z,1357
2023-01-23T14:27:28.215Z,1227
2023-01-23T14:30:07.937Z,1157
2023-01-23T14:33:07.767Z,1163
2023-01-23T14:36:07.904Z,1083
2023-01-23T14:39:07.858Z,1163
2023-01-23T14:42:25.469Z,1097
2023-01-23T14:45:08.163Z,1037
2023-01-23T14:48:14.140Z,1103
2023-01-23T14:51:07.957Z,1020
2023-01-23T14:54:12.953Z,930
2023-01-23T14:57:08.009Z,747
2023-01-23T15:00:08.123Z,710
2023-01-23T15:03:08.323Z,620
2023-01-23T15:06:07.902Z,583
2023-01-23T15:09:08.109Z,533
2023-01-23T15:12:07.915Z,433
2023-01-23T15:15:08.058Z,347
2023-01-23T15:18:08.569Z,320
2023-01-23T15:21:07.794Z,303
2023-01-23T15:24:08.243Z,293
2023-01-23T15:27:07.799Z,240
2023-01-23T15:30:07.863Z,200
2023-01-23T15:33:08.127Z,157
2023-01-23T15:36:07.849Z,127
2023-01-23T15:39:07.775Z,113
2023-01-23T15:42:07.948Z,97
2023-01-23T15:45:08.418Z,80
2023-01-23T15:48:07.853Z,67
2023-01-23T15:51:07.910Z,60
2023-01-23T15:54:07.770Z,50
2023-01-23T15:57:15.620Z,37
2023-01-23T16:00:08.216Z,30
2023-01-23T16:03:08.093Z,17
2023-01-23T16:06:09.995Z,13
2023-01-23T16:09:12.973Z,7
2023-01-23T16:12:09.452Z,7
2023-01-23T16:15:07.796Z,3
2023-01-23T16:18:10.620Z,3
2023-01-23T16:21:07.771Z,3
2023-01-23T16:24:10.230Z,0
2023-01-23T16:27:07.801Z,0
2023-01-23T16:30:07.852Z,0
2023-01-23T16:33:07.911Z,0
2023-01-23T16:36:07.735Z,0
2023-01-23T16:39:09.200Z,0
2023-01-23T16:42:07.890Z,0
2023-01-23T16:45:07.925Z,0
2023-01-23T16:48:15.366Z,0
2023-01-23T16:51:07.874Z,0
2023-01-23T16:54:25.536Z,0
2023-01-23T16:57:07.811Z,0
2023-01-23T17:00:07.834Z,0
2023-01-23T17:03:07.761Z,0
2023-01-23T17:06:08.183Z,0
2023-01-23T17:09:07.812Z,0
2023-01-23T17:12:07.696Z,0
2023-01-23T17:15:07.822Z,0
2023-01-23T17:18:07.821Z,0
2023-01-23T17:21:07.780Z,0
2023-01-23T17:24:08.364Z,0
2023-01-23T17:27:07.796Z,0
2023-01-23T17:30:07.752Z,0
2023-01-23T17:33:07.815Z,0
2023-01-23T17:36:07.861Z,0
2023-01-23T17:39:07.817Z,0
2023-01-23T17:42:07.759Z,0
2023-01-23T17:45:07.730Z,0
2023-01-23T17:48:07.938Z,0
2023-01-23T17:51:07.814Z,0
2023-01-23T17:54:07.685Z,0
2023-01-23T17:57:07.821Z,0
2023-01-23T18:00:07.888Z,0
2023-01-23T18:03:07.844Z,0
2023-01-23T18:06:07.821Z,0
2023-01-23T18:09:07.763Z,0
2023-01-23T18:12:07.725Z,0
2023-01-23T18:15:07.717Z,0
2023-01-23T18:18:07.795Z,0
2023-01-23T18:21:07.781Z,0
2023-01-23T18:24:08.353Z,0
2023-01-23T18:27:07.835Z,0
2023-01-23T18:30:07.942Z,0
2023-01-23T18:33:07.792Z,0
2023-01-23T18:36:07.781Z,0
2023-01-23T18:39:07.829Z,0
2023-01-23T18:42:07.774Z,0
2023-01-23T18:45:07.734Z,0
2023-01-23T18:48:26.087Z,0
2023-01-23T18:51:07.748Z,0
2023-01-23T18:54:07.754Z,0
2023-01-23T18:57:07.783Z,0
2023-01-23T19:00:07.918Z,0
2023-01-23T19:03:07.720Z,0
2023-01-23T19:06:07.770Z,0
2023-01-23T19:09:07.917Z,0
2023-01-23T19:12:24.813Z,0
2023-01-23T19:15:07.770Z,0
2023-01-23T19:18:07.742Z,0
2023-01-23T19:21:07.759Z,0
2023-01-23T19:24:08.112Z,0
2023-01-23T19:27:07.868Z,0
2023-01-23T19:30:07.743Z,0
2023-01-23T19:33:07.722Z,0
2023-01-23T19:36:07.820Z,0
2023-01-23T19:39:07.788Z,0
2023-01-23T19:42:07.861Z,0
2023-01-23T19:45:07.801Z,0
2023-01-23T19:48:07.793Z,0
2023-01-23T19:51:07.882Z,0
2023-01-23T19:54:07.806Z,0
2023-01-23T19:57:07.793Z,0
2023-01-23T20:00:07.968Z,0
2023-01-23T20:03:07.728Z,0
2023-01-23T20:06:07.799Z,0
2023-01-23T20:09:07.670Z,0
2023-01-23T20:12:07.794Z,0
2023-01-23T20:15:07.813Z,0
2023-01-23T20:18:07.791Z,0
2023-01-23T20:21:07.879Z,0
2023-01-23T20:24:09.621Z,0
2023-01-23T20:27:07.774Z,0
2023-01-23T20:30:07.820Z,0
2023-01-23T20:33:07.863Z,0
2023-01-23T20:36:07.719Z,0
2023-01-23T20:39:07.895Z,0
2023-01-23T20:42:08.846Z,0
2023-01-23T20:45:07.998Z,0
2023-01-23T20:48:07.714Z,0
2023-01-23T20:51:09.691Z,0
2023-01-23T20:54:07.767Z,0
2023-01-23T20:57:07.729Z,0
2023-01-23T21:00:07.886Z,0
2023-01-23T21:03:08.150Z,0
2023-01-23T21:06:07.779Z,0
2023-01-23T21:09:07.707Z,0
2023-01-23T21:12:07.843Z,0
2023-01-23T21:15:07.788Z,0
2023-01-23T21:18:07.770Z,0
2023-01-23T21:21:08.040Z,0
2023-01-23T21:24:08.245Z,0
2023-01-23T21:27:08.069Z,0
2023-01-23T21:30:07.744Z,0
2023-01-23T21:33:07.837Z,0
2023-01-23T21:36:07.797Z,0
2023-01-23T21:39:10.139Z,0
2023-01-23T21:42:07.779Z,0
2023-01-23T21:45:08.081Z,0
2023-01-23T21:48:07.939Z,0
2023-01-23T21:51:07.765Z,0
2023-01-23T21:54:07.705Z,0
2023-01-23T21:57:07.786Z,0
2023-01-23T22:00:07.801Z,0
2023-01-23T22:03:07.884Z,0
2023-01-23T22:06:07.699Z,0
2023-01-23T22:09:07.820Z,0
2023-01-23T22:12:07.768Z,0
2023-01-23T22:15:07.793Z,0
2023-01-23T22:18:07.793Z,0
2023-01-23T22:21:07.775Z,0
2023-01-23T22:24:08.163Z,0
2023-01-23T22:27:07.747Z,0
2023-01-23T22:30:07.859Z,0
2023-01-23T22:33:07.780Z,0
2023-01-23T22:36:07.718Z,0
2023-01-23T22:39:07.807Z,0
2023-01-23T22:42:07.875Z,0
2023-01-23T22:45:07.787Z,0
2023-01-23T22:48:07.748Z,0
2023-01-23T22:51:07.762Z,0
2023-01-23T22:54:07.773Z,0
2023-01-23T22:57:07.786Z,0
2023-01-23T23:00:09.050Z,0
2023-01-23T23:03:07.760Z,0
2023-01-23T23:06:07.735Z,0
2023-01-23T23:09:07.837Z,0
2023-01-23T23:12:07.785Z,0
2023-01-23T23:15:07.744Z,0
2023-01-23T23:18:07.814Z,0
2023-01-23T23:21:07.737Z,0
2023-01-23T23:24:08.187Z,0
2023-01-23T23:27:07.750Z,0
2023-01-23T23:30:07.859Z,0
2023-01-23T23:33:07.976Z,0
2023-01-23T23:36:07.818Z,0
2023-01-23T23:39:07.715Z,0
2023-01-23T23:42:07.780Z,0
2023-01-23T23:45:07.769Z,0
2023-01-23T23:48:07.784Z,0
2023-01-23T23:51:07.752Z,0
2023-01-23T23:54:07.795Z,0
2023-01-23T23:57:07.849Z,0
